createdAt,value
2023-01-11T00:00:45.046Z,100819.00
2023-01-11T00:03:12.247Z,100810.97
2023-01-11T00:05:42.969Z,100803.47
2023-01-11T00:08:10.150Z,100799.81
2023-01-11T00:10:36.827Z,100788.59
2023-01-11T00:13:03.920Z,100786.19
2023-01-11T00:15:30.773Z,100785.72
2023-01-11T00:17:57.636Z,100785.88
2023-01-11T00:20:24.507Z,100787.31
2023-01-11T00:22:51.022Z,100773.41
2023-01-11T00:25:17.785Z,100779.97
2023-01-11T00:27:44.213Z,100761.22
2023-01-11T00:30:11.375Z,100755.00
2023-01-11T00:32:37.744Z,100753.06
2023-01-11T00:35:04.488Z,100749.75
2023-01-11T00:37:30.988Z,100745.88
2023-01-11T00:39:57.395Z,100729.72
2023-01-11T00:42:42.387Z,100731.97
2023-01-11T00:45:27.834Z,100727.31
2023-01-11T00:47:57.361Z,100731.81
2023-01-11T00:50:25.003Z,100725.72
2023-01-11T00:52:51.456Z,100732.28
2023-01-11T00:55:17.918Z,100726.97
2023-01-11T00:57:44.314Z,100720.59
2023-01-11T01:00:11.439Z,100726.22
2023-01-11T01:02:38.139Z,100715.00
2023-01-11T01:05:04.857Z,100718.81
2023-01-11T01:07:31.262Z,100727.16
2023-01-11T01:09:57.711Z,100718.66
2023-01-11T01:12:42.466Z,100719.97
2023-01-11T01:15:09.351Z,100729.88
2023-01-11T01:17:35.735Z,100729.22
2023-01-11T01:20:02.122Z,100726.81
2023-01-11T01:22:28.664Z,100725.41
2023-01-11T01:24:55.042Z,100729.38
2023-01-11T01:27:21.443Z,100719.97
2023-01-11T01:29:47.873Z,100712.13
2023-01-11T01:32:14.250Z,100707.47
2023-01-11T01:34:40.688Z,100716.59
2023-01-11T01:37:08.101Z,100708.75
2023-01-11T01:39:34.589Z,100704.13
2023-01-11T01:42:01.126Z,100702.03
2023-01-11T01:44:55.110Z,100694.69
2023-01-11T01:47:27.002Z,100705.56
2023-01-11T01:49:54.231Z,100693.88
2023-01-11T01:52:21.362Z,100680.59
2023-01-11T01:54:49.357Z,100675.81
2023-01-11T01:57:25.781Z,100670.53
2023-01-11T01:59:56.194Z,100666.34
2023-01-11T02:02:24.936Z,100656.28
2023-01-11T02:04:54.670Z,100656.28
2023-01-11T02:07:26.450Z,100651.00
2023-01-11T02:09:57.084Z,100640.28
2023-01-11T02:12:25.768Z,100629.69
2023-01-11T02:14:54.492Z,100635.28
2023-01-11T02:17:21.637Z,100634.53
2023-01-11T02:19:54.395Z,100624.44
2023-01-11T02:22:52.874Z,100617.38
2023-01-11T02:25:28.399Z,100618.53
2023-01-11T02:28:13.200Z,100605.69
2023-01-11T02:30:45.565Z,100598.34
2023-01-11T02:33:42.776Z,100590.34
2023-01-11T02:36:27.095Z,100592.41
2023-01-11T02:39:14.665Z,100588.94
2023-01-11T02:42:27.291Z,100587.03
2023-01-11T02:45:06.505Z,100580.44
2023-01-11T02:47:56.152Z,100563.81
2023-01-11T02:50:25.297Z,100558.53
2023-01-11T02:52:59.287Z,100567.66
2023-01-11T02:55:31.241Z,100559.59
2023-01-11T02:58:01.381Z,100558.84
2023-01-11T03:00:29.001Z,100565.22
2023-01-11T03:03:14.774Z,100555.16
2023-01-11T03:05:51.384Z,100551.63
2023-01-11T03:08:40.492Z,100549.56
2023-01-11T03:11:39.715Z,100550.03
2023-01-11T03:14:21.127Z,100543.63
2023-01-11T03:17:16.602Z,100547.31
2023-01-11T03:19:50.856Z,100551.00
2023-01-11T03:22:32.151Z,100557.72
2023-01-11T03:25:04.271Z,100551.28
2023-01-11T03:27:46.151Z,100538.03
2023-01-11T03:30:21.666Z,100536.59
2023-01-11T03:33:01.800Z,100534.53
2023-01-11T03:35:31.219Z,100530.84
2023-01-11T03:38:00.353Z,100533.06
2023-01-11T03:40:33.714Z,100526.63
2023-01-11T03:43:13.694Z,100530.16
2023-01-11T03:45:49.395Z,100511.63
2023-01-11T03:48:30.993Z,100510.31
2023-01-11T03:51:00.136Z,100497.69
2023-01-11T03:53:30.658Z,100495.72
2023-01-11T03:56:00.100Z,100496.34
2023-01-11T03:58:30.052Z,100495.88
2023-01-11T04:00:58.022Z,100489.00
2023-01-11T04:03:27.151Z,100493.16
2023-01-11T04:05:59.247Z,100501.47
2023-01-11T04:08:25.985Z,100493.31
2023-01-11T04:10:52.422Z,100496.66
2023-01-11T04:13:18.882Z,100492.81
2023-01-11T04:15:45.507Z,100491.47
2023-01-11T04:18:11.906Z,100487.03
2023-01-11T04:20:40.224Z,100482.53
2023-01-11T04:23:08.359Z,100484.97
2023-01-11T04:25:34.832Z,100487.69
2023-01-11T04:28:01.715Z,100493.59
2023-01-11T04:30:28.121Z,100489.75
2023-01-11T04:32:57.726Z,100478.22
2023-01-11T04:35:24.105Z,100495.75
2023-01-11T04:37:54.621Z,100485.84
2023-01-11T04:40:21.160Z,100476.09
2023-01-11T04:42:47.686Z,100455.00
2023-01-11T04:45:14.261Z,100450.81
2023-01-11T04:47:40.718Z,100448.88
2023-01-11T04:50:08.569Z,100447.16
2023-01-11T04:52:35.103Z,100454.06
2023-01-11T04:55:01.508Z,100442.16
2023-01-11T04:57:27.888Z,100441.72
2023-01-11T04:59:54.284Z,100444.09
2023-01-11T05:02:20.779Z,100441.84
2023-01-11T05:04:47.159Z,100436.28
2023-01-11T05:07:13.703Z,100441.72
2023-01-11T05:09:40.782Z,100441.50
2023-01-11T05:12:07.265Z,100430.31
2023-01-11T05:14:33.705Z,100431.56
2023-01-11T05:17:00.168Z,100429.97
2023-01-11T05:19:26.593Z,100428.56
2023-01-11T05:21:52.983Z,100433.47
2023-01-11T05:24:19.485Z,100432.38
2023-01-11T05:26:48.250Z,100427.19
2023-01-11T05:29:20.737Z,100420.81
2023-01-11T05:31:47.714Z,100417.56
2023-01-11T05:34:14.950Z,100417.56
2023-01-11T05:36:42.091Z,100416.28
2023-01-11T05:39:08.852Z,100408.78
2023-01-11T05:41:35.304Z,100391.41
2023-01-11T05:44:20.441Z,100405.06
2023-01-11T05:46:46.872Z,100398.97
2023-01-11T05:49:14.397Z,100397.03
2023-01-11T05:51:42.291Z,100383.09
2023-01-11T05:54:12.792Z,100387.28
2023-01-11T05:56:39.498Z,100383.25
2023-01-11T05:59:06.116Z,100381.22
2023-01-11T06:01:32.831Z,100374.75
2023-01-11T06:03:59.345Z,100383.56
2023-01-11T06:06:26.051Z,100389.16
2023-01-11T06:08:52.574Z,100380.19
2023-01-11T06:11:19.047Z,100382.03
2023-01-11T06:13:45.476Z,100377.06
2023-01-11T06:16:15.674Z,100374.00
2023-01-11T06:18:47.608Z,100374.00
2023-01-11T06:21:15.536Z,100371.63
2023-01-11T06:23:45.090Z,100362.97
2023-01-11T06:26:14.654Z,100362.06
2023-01-11T06:28:41.313Z,100361.06
2023-01-11T06:31:08.543Z,100364.84
2023-01-11T06:33:36.166Z,100361.34
2023-01-11T06:36:05.615Z,100365.19
2023-01-11T06:38:32.406Z,100364.56
2023-01-11T06:41:00.575Z,100361.94
2023-01-11T06:43:28.361Z,100377.06
2023-01-11T06:45:55.782Z,100375.09
2023-01-11T06:48:24.358Z,100371.13
2023-01-11T06:50:53.048Z,100370.63
2023-01-11T06:53:19.713Z,100365.34
2023-01-11T06:55:50.855Z,100358.59
2023-01-11T06:58:17.360Z,100361.19
2023-01-11T07:00:43.887Z,100368.06
2023-01-11T07:03:11.928Z,100360.06
2023-01-11T07:05:39.098Z,100367.50
2023-01-11T07:08:05.904Z,100363.66
2023-01-11T07:10:32.469Z,100349.38
2023-01-11T07:12:58.839Z,100355.94
2023-01-11T07:15:25.496Z,100356.63
2023-01-11T07:18:01.066Z,100354.78
2023-01-11T07:20:27.721Z,100356.22
2023-01-11T07:22:59.401Z,100347.03
2023-01-11T07:25:27.582Z,100353.69
2023-01-11T07:27:59.316Z,100354.81
2023-01-11T07:30:30.331Z,100350.19
2023-01-11T07:33:00.599Z,100351.16
2023-01-11T07:35:29.014Z,100350.72
2023-01-11T07:37:55.516Z,100359.13
2023-01-11T07:40:22.031Z,100361.19
2023-01-11T07:43:08.528Z,100361.72
2023-01-11T07:45:45.438Z,100356.22
2023-01-11T07:48:13.903Z,100353.50
2023-01-11T07:50:44.251Z,100355.69
2023-01-11T07:53:11.872Z,100350.91
2023-01-11T07:55:39.656Z,100349.53
2023-01-11T07:58:07.469Z,100348.38
2023-01-11T08:00:33.860Z,100348.19
2023-01-11T08:03:00.497Z,100347.84
2023-01-11T08:05:27.191Z,100349.44
2023-01-11T08:07:53.575Z,100348.53
2023-01-11T08:10:20.043Z,100345.59
2023-01-11T08:13:06.935Z,100342.34
2023-01-11T08:15:36.571Z,100340.28
2023-01-11T08:18:05.667Z,100341.72
2023-01-11T08:20:32.109Z,100351.28
2023-01-11T08:23:03.471Z,100350.16
2023-01-11T08:25:30.176Z,100344.13
2023-01-11T08:28:00.562Z,100351.63
2023-01-11T08:30:27.189Z,100343.13
2023-01-11T08:32:53.621Z,100349.22
2023-01-11T08:35:21.775Z,100351.19
2023-01-11T08:37:48.225Z,100346.63
2023-01-11T08:40:14.688Z,100347.56
2023-01-11T08:42:41.101Z,100352.38
2023-01-11T08:45:08.316Z,100348.53
2023-01-11T08:47:34.765Z,100352.38
2023-01-11T08:50:01.144Z,100355.81
2023-01-11T08:52:27.629Z,100350.56
2023-01-11T08:54:54.056Z,100349.13
2023-01-11T08:57:20.860Z,100353.44
2023-01-11T08:59:47.385Z,100353.91
2023-01-11T09:02:13.889Z,100351.03
2023-01-11T09:04:41.697Z,100358.53
2023-01-11T09:07:08.205Z,100346.28
2023-01-11T09:09:34.654Z,100350.50
2023-01-11T09:12:05.513Z,100343.78
2023-01-11T09:14:32.293Z,100346.19
2023-01-11T09:16:58.927Z,100346.28
2023-01-11T09:19:25.412Z,100344.13
2023-01-11T09:21:52.194Z,100345.53
2023-01-11T09:24:18.962Z,100346.75
2023-01-11T09:26:45.435Z,100347.44
2023-01-11T09:29:12.264Z,100342.00
2023-01-11T09:31:38.805Z,100346.44
2023-01-11T09:34:06.817Z,100341.78
2023-01-11T09:36:35.817Z,100340.97
2023-01-11T09:39:06.312Z,100342.00
2023-01-11T09:41:41.861Z,100346.22
2023-01-11T09:44:16.388Z,100341.03
2023-01-11T09:46:48.225Z,100335.31
2023-01-11T09:49:28.010Z,100336.91
2023-01-11T09:52:05.523Z,100329.78
2023-01-11T09:54:32.294Z,100331.72
2023-01-11T09:57:21.092Z,100325.03
2023-01-11T10:00:04.944Z,100319.03
2023-01-11T10:02:59.119Z,100319.31
2023-01-11T10:05:51.411Z,100310.84
2023-01-11T10:18:31.767Z,100295.47
2023-01-11T10:18:37.390Z,100299.47
2023-01-11T10:20:44.607Z,100301.66
2023-01-11T10:23:32.068Z,100290.28
2023-01-11T10:26:04.933Z,100295.44
2023-01-11T10:28:43.057Z,100296.06
2023-01-11T10:31:43.908Z,100282.34
2023-01-11T10:34:38.483Z,100284.97
2023-01-11T10:37:20.853Z,100281.13
2023-01-11T10:40:40.454Z,100271.56
2023-01-11T10:43:17.095Z,100262.03
2023-01-11T10:46:08.397Z,100262.38
2023-01-11T10:48:44.481Z,100256.03
2023-01-11T10:51:37.837Z,100256.69
2023-01-11T10:54:17.855Z,100253.38
2023-01-11T10:57:05.200Z,100251.25
2023-01-11T10:59:41.228Z,100250.00
2023-01-11T11:02:49.615Z,100237.94
2023-01-11T11:05:26.875Z,100240.34
2023-01-11T11:08:28.397Z,100231.94
2023-01-11T11:11:17.616Z,100237.56
2023-01-11T11:13:47.270Z,100227.47
2023-01-11T11:16:27.059Z,100227.00
2023-01-11T11:18:58.579Z,100220.78
2023-01-11T11:21:35.860Z,100225.66
2023-01-11T11:24:08.295Z,100225.22
2023-01-11T11:26:43.096Z,100217.16
2023-01-11T11:29:11.674Z,100214.75
2023-01-11T11:31:43.999Z,100221.44
2023-01-11T11:34:17.676Z,100214.53
2023-01-11T11:36:46.315Z,100203.84
2023-01-11T11:39:22.124Z,100216.91
2023-01-11T11:41:51.700Z,100206.59
2023-01-11T11:44:24.191Z,100203.47
2023-01-11T11:47:01.378Z,100198.75
2023-01-11T11:49:30.459Z,100195.69
2023-01-11T11:51:58.701Z,100194.25
2023-01-11T11:54:29.878Z,100186.56
2023-01-11T11:56:58.853Z,100183.03
2023-01-11T11:59:29.903Z,100182.00
2023-01-11T12:02:04.849Z,100180.88
2023-01-11T12:04:53.287Z,100171.66
2023-01-11T12:07:27.018Z,100168.00
2023-01-11T12:10:07.087Z,100167.63
2023-01-11T12:12:36.374Z,100162.78
2023-01-11T12:15:15.160Z,100164.75
2023-01-11T12:17:43.032Z,100158.63
2023-01-11T12:20:24.339Z,100156.56
2023-01-11T12:23:08.820Z,100151.84
2023-01-11T12:25:45.222Z,100154.34
2023-01-11T12:28:28.319Z,100147.50
2023-01-11T12:31:17.800Z,100144.13
2023-01-11T12:34:23.745Z,100144.66
2023-01-11T12:37:05.237Z,100140.34
2023-01-11T12:39:46.700Z,100135.25
2023-01-11T12:42:34.638Z,100142.03
2023-01-11T12:45:16.790Z,100136.59
2023-01-11T12:47:43.237Z,100132.69
2023-01-11T12:50:25.361Z,100128.50
2023-01-11T12:53:36.621Z,100136.09
2023-01-11T12:56:11.742Z,100143.94
2023-01-11T12:58:49.987Z,100140.75
2023-01-11T13:01:50.806Z,100146.41
2023-01-11T13:04:59.948Z,100144.63
2023-01-11T13:07:32.321Z,100141.78
2023-01-11T13:10:36.390Z,100143.94
2023-01-11T13:13:12.268Z,100142.53
2023-01-11T13:16:03.873Z,100133.88
2023-01-11T13:18:48.441Z,100146.31
2023-01-11T13:21:28.650Z,100146.31
2023-01-11T13:23:57.703Z,100153.09
2023-01-11T13:26:29.346Z,100139.91
2023-01-11T13:29:04.521Z,100147.19
2023-01-11T13:31:34.575Z,100144.91
2023-01-11T13:34:12.610Z,100139.25
2023-01-11T13:36:45.447Z,100139.78
2023-01-11T13:39:32.326Z,100146.41
2023-01-11T13:42:04.405Z,100143.31
2023-01-11T13:44:37.175Z,100145.72
2023-01-11T13:47:11.473Z,100156.03
2023-01-11T13:50:02.986Z,100152.59
2023-01-11T13:52:52.814Z,100153.72
2023-01-11T13:55:27.058Z,100161.91
2023-01-11T13:57:59.922Z,100163.75
2023-01-11T14:00:39.018Z,100164.63
2023-01-11T14:03:30.101Z,100161.59
2023-01-11T14:06:11.883Z,100157.59
2023-01-11T14:09:06.283Z,100166.34
2023-01-11T14:11:32.619Z,100163.97
2023-01-11T14:14:27.763Z,100171.88
2023-01-11T14:17:31.187Z,100181.88
2023-01-11T14:20:14.697Z,100185.41
2023-01-11T14:22:52.521Z,100186.22
2023-01-11T14:25:30.316Z,100195.00
2023-01-11T14:28:03.166Z,100191.78
2023-01-11T14:31:06.446Z,100188.50
2023-01-11T14:33:42.068Z,100187.00
2023-01-11T14:36:17.241Z,100195.44
2023-01-11T14:39:22.037Z,100195.81
2023-01-11T14:42:29.321Z,100200.66
2023-01-11T14:45:16.669Z,100194.75
2023-01-11T14:48:10.891Z,100202.00
2023-01-11T14:51:01.990Z,100211.66
2023-01-11T14:53:39.575Z,100211.31
2023-01-11T14:56:44.028Z,100217.56
2023-01-11T14:59:39.806Z,100216.09
2023-01-11T15:02:14.130Z,100212.00
2023-01-11T15:04:53.321Z,100217.13
2023-01-11T15:07:23.254Z,100219.31
2023-01-11T15:09:53.766Z,100221.81
2023-01-11T15:12:23.479Z,100225.06
2023-01-11T15:14:55.344Z,100222.50
2023-01-11T15:17:44.495Z,100225.31
2023-01-11T15:20:17.151Z,100223.72
2023-01-11T15:22:45.188Z,100240.91
2023-01-11T15:25:31.261Z,100237.50
2023-01-11T15:28:03.565Z,100242.50
2023-01-11T15:30:30.108Z,100238.53
2023-01-11T15:33:18.612Z,100247.16
2023-01-11T15:35:57.315Z,100247.25
2023-01-11T15:38:30.315Z,100251.50
2023-01-11T15:41:18.452Z,100246.13
2023-01-11T15:43:57.523Z,100242.34
2023-01-11T15:46:55.820Z,100250.44
2023-01-11T15:49:53.715Z,100253.88
2023-01-11T15:52:50.445Z,100260.06
2023-01-11T15:55:35.159Z,100260.56
2023-01-11T15:58:23.824Z,100264.47
2023-01-11T16:01:26.158Z,100262.69
2023-01-11T16:03:56.096Z,100265.06
2023-01-11T16:06:57.954Z,100259.44
2023-01-11T16:09:42.978Z,100271.59
2023-01-11T16:12:41.188Z,100270.28
2023-01-11T16:15:48.147Z,100265.06
2023-01-11T16:18:24.070Z,100268.66
2023-01-11T16:21:02.374Z,100276.25
2023-01-11T16:23:31.842Z,100278.72
2023-01-11T16:25:59.889Z,100282.78
2023-01-11T16:28:27.932Z,100279.78
2023-01-11T16:30:56.509Z,100299.88
2023-01-11T16:33:29.183Z,100302.97
2023-01-11T16:36:23.965Z,100304.81
2023-01-11T16:39:13.261Z,100304.66
2023-01-11T16:42:05.594Z,100310.47
2023-01-11T16:44:53.476Z,100309.69
2023-01-11T16:47:21.833Z,100316.84
2023-01-11T16:50:09.388Z,100316.19
2023-01-11T16:52:44.148Z,100317.78
2023-01-11T16:55:19.888Z,100328.81
2023-01-11T16:57:51.852Z,100330.84
2023-01-11T17:00:35.415Z,100330.28
2023-01-11T17:03:20.894Z,100331.53
2023-01-11T17:05:58.081Z,100336.66
2023-01-11T17:08:34.724Z,100334.97
2023-01-11T17:11:07.713Z,100337.63
2023-01-11T17:13:53.178Z,100342.66
2023-01-11T17:16:23.195Z,100348.66
2023-01-11T17:18:49.911Z,100345.72
2023-01-11T17:21:25.855Z,100350.94
2023-01-11T17:23:58.221Z,100347.88
2023-01-11T17:26:28.032Z,100356.16
2023-01-11T17:28:57.423Z,100363.41
2023-01-11T17:31:30.982Z,100360.28
2023-01-11T17:34:08.277Z,100364.72
2023-01-11T17:36:36.076Z,100361.88
2023-01-11T17:39:04.504Z,100359.34
2023-01-11T17:41:50.043Z,100362.53
2023-01-11T17:44:38.314Z,100369.47
2023-01-11T17:47:08.733Z,100362.78
2023-01-11T17:49:37.858Z,100374.31
2023-01-11T17:52:10.612Z,100368.84
2023-01-11T17:54:37.118Z,100369.44
2023-01-11T17:57:03.738Z,100378.50
2023-01-11T17:59:30.584Z,100376.81
2023-01-11T18:02:02.606Z,100380.25
2023-01-11T18:04:30.664Z,100378.91
2023-01-11T18:07:07.863Z,100392.09
2023-01-11T18:09:40.016Z,100391.88
2023-01-11T18:12:22.986Z,100391.66
2023-01-11T18:14:56.868Z,100391.22
2023-01-11T18:17:32.374Z,100394.97
2023-01-11T18:20:00.463Z,100396.69
2023-01-11T18:22:43.291Z,100392.34
2023-01-11T18:25:23.742Z,100399.84
2023-01-11T18:27:50.983Z,100399.88
2023-01-11T18:30:45.785Z,100405.34
2023-01-11T18:33:22.561Z,100409.53
2023-01-11T18:35:52.035Z,100409.19
2023-01-11T18:38:21.537Z,100410.66
2023-01-11T18:40:50.546Z,100404.19
2023-01-11T18:43:24.163Z,100405.22
2023-01-11T18:45:50.668Z,100409.31
2023-01-11T18:48:17.642Z,100418.97
2023-01-11T18:50:45.267Z,100425.22
2023-01-11T18:53:13.511Z,100429.56
2023-01-11T18:55:40.107Z,100432.38
2023-01-11T18:58:06.911Z,100434.22
2023-01-11T19:00:34.265Z,100430.44
2023-01-11T19:03:01.051Z,100442.41
2023-01-11T19:05:27.586Z,100441.72
2023-01-11T19:07:53.960Z,100438.06
2023-01-11T19:10:22.306Z,100442.28
2023-01-11T19:12:49.510Z,100433.97
2023-01-11T19:15:16.689Z,100444.44
2023-01-11T19:17:43.537Z,100447.97
2023-01-11T19:20:11.066Z,100453.28
2023-01-11T19:22:38.119Z,100451.50
2023-01-11T19:25:06.623Z,100457.03
2023-01-11T19:27:33.171Z,100462.75
2023-01-11T19:29:59.689Z,100454.44
2023-01-11T19:32:26.111Z,100462.28
2023-01-11T19:34:53.507Z,100464.31
2023-01-11T19:37:20.716Z,100468.31
2023-01-11T19:39:47.250Z,100474.78
2023-01-11T19:42:13.667Z,100471.25
2023-01-11T19:44:40.160Z,100472.25
2023-01-11T19:47:13.277Z,100485.22
2023-01-11T19:49:40.876Z,100480.91
2023-01-11T19:52:18.550Z,100485.22
2023-01-11T19:54:46.617Z,100488.63
2023-01-11T19:57:17.833Z,100482.03
2023-01-11T19:59:44.833Z,100491.22
2023-01-11T20:02:13.164Z,100484.53
2023-01-11T20:04:40.375Z,100490.00
2023-01-11T20:07:08.230Z,100489.19
2023-01-11T20:09:37.648Z,100492.81
2023-01-11T20:12:09.674Z,100502.34
2023-01-11T20:14:36.509Z,100502.47
2023-01-11T20:17:03.320Z,100495.88
2023-01-11T20:19:30.105Z,100500.84
2023-01-11T20:21:56.680Z,100498.91
2023-01-11T20:24:28.244Z,100497.09
2023-01-11T20:26:58.467Z,100506.22
2023-01-11T20:29:24.986Z,100499.94
2023-01-11T20:31:51.507Z,100504.19
2023-01-11T20:34:18.758Z,100505.00
2023-01-11T20:36:45.565Z,100509.56
2023-01-11T20:39:12.316Z,100517.63
2023-01-11T20:41:48.607Z,100523.50
2023-01-11T20:44:27.849Z,100524.41
2023-01-11T20:46:56.101Z,100507.16
2023-01-11T20:49:24.870Z,100508.56
2023-01-11T20:51:51.779Z,100501.09
2023-01-11T20:54:18.462Z,100503.88
2023-01-11T20:56:47.808Z,100498.03
2023-01-11T20:59:20.303Z,100508.75
2023-01-11T21:01:48.580Z,100501.81
2023-01-11T21:04:17.257Z,100507.47
2023-01-11T21:06:46.015Z,100509.28
2023-01-11T21:09:17.269Z,100513.13
2023-01-11T21:11:44.258Z,100517.31
2023-01-11T21:14:13.553Z,100507.56
2023-01-11T21:16:44.257Z,100518.00
2023-01-11T21:19:12.430Z,100514.94
2023-01-11T21:21:38.930Z,100504.22
2023-01-11T21:24:05.927Z,100507.47
2023-01-11T21:26:34.363Z,100509.00
2023-01-11T21:29:03.418Z,100500.88
2023-01-11T21:31:32.604Z,100509.91
2023-01-11T21:34:00.245Z,100507.09
2023-01-11T21:36:28.388Z,100501.13
2023-01-11T21:38:56.855Z,100493.56
2023-01-11T21:41:47.611Z,100496.97
2023-01-11T21:44:15.170Z,100499.88
2023-01-11T21:46:42.806Z,100503.88
2023-01-11T21:49:10.157Z,100502.00
2023-01-11T21:51:37.060Z,100497.97
2023-01-11T21:54:06.398Z,100498.66
2023-01-11T21:56:33.241Z,100498.47
2023-01-11T21:58:59.793Z,100494.69
2023-01-11T22:01:26.565Z,100498.31
2023-01-11T22:03:53.181Z,100502.69
2023-01-11T22:06:19.723Z,100500.63
2023-01-11T22:08:46.878Z,100510.88
2023-01-11T22:11:17.897Z,100502.41
2023-01-11T22:13:44.828Z,100503.75
2023-01-11T22:16:16.922Z,100497.06
2023-01-11T22:18:47.217Z,100504.28
2023-01-11T22:21:17.852Z,100503.88
2023-01-11T22:23:46.396Z,100505.34
2023-01-11T22:26:15.302Z,100495.41
2023-01-11T22:29:00.971Z,100502.34
2023-01-11T22:31:29.396Z,100492.66
2023-01-11T22:33:56.235Z,100485.16
2023-01-11T22:36:23.769Z,100478.91
2023-01-11T22:38:51.184Z,100483.91
2023-01-11T22:41:17.784Z,100471.06
2023-01-11T22:43:44.930Z,100485.56
2023-01-11T22:46:16.886Z,100480.19
2023-01-11T22:48:44.460Z,100483.25
2023-01-11T22:51:11.726Z,100487.06
2023-01-11T22:53:39.387Z,100495.19
2023-01-11T22:56:06.858Z,100480.38
2023-01-11T22:58:34.902Z,100482.25
2023-01-11T23:01:22.043Z,100492.59
2023-01-11T23:03:49.704Z,100492.91
2023-01-11T23:06:21.562Z,100479.75
2023-01-11T23:08:48.344Z,100480.44
2023-01-11T23:11:56.263Z,100482.31
2023-01-11T23:14:36.247Z,100483.78
2023-01-11T23:17:08.028Z,100491.78
2023-01-11T23:19:37.046Z,100475.16
2023-01-11T23:22:04.705Z,100482.66
2023-01-11T23:24:31.542Z,100470.94
2023-01-11T23:26:58.128Z,100466.81
2023-01-11T23:29:24.657Z,100470.34
2023-01-11T23:31:51.155Z,100473.66
2023-01-11T23:34:17.633Z,100473.53
2023-01-11T23:36:44.047Z,100473.88
2023-01-11T23:39:14.286Z,100468.53
2023-01-11T23:41:59.447Z,100471.91
2023-01-11T23:44:26.290Z,100469.81
2023-01-11T23:47:11.059Z,100478.31
2023-01-11T23:49:37.779Z,100472.78
2023-01-11T23:52:04.499Z,100476.25
2023-01-11T23:54:33.332Z,100480.25
2023-01-11T23:57:01.509Z,100480.94
2023-01-11T23:59:28.491Z,100466.66
